American Fork, Utah
Current Conditions -  °F | °C
As of 10:47 AM on Thursday 29 Jan 2015 (Local Time) from KPVU Reporting Station
Haze Haze  
Wind Chill: 37°   Ceiling: Unl
Heat Index: 37°   Visibility: 3mi
Dew Point: 30°   Wind: 3mph
Humidity: 75%   Direction: NA
Pressure: 30.38"   Gusts: NA
Location:  40.38°N, 111.79°W
Report Text: KPVU 291747Z VRB03KT 3SM BR FEW070 SCT160 03/M01 A3038
Loading
Personal Weather Stations






























Interactive Weather Map New forecast layout! Learn more

10-Day Weather Forecast

Advertisements
Track Severe Weather on mobile